createdAt,value
2022-12-03T00:00:17.822Z,1.1
2022-12-03T00:01:18.020Z,1.1
2022-12-03T00:02:18.070Z,1.1
2022-12-03T00:03:17.873Z,1.1
2022-12-03T00:04:17.767Z,1.1
2022-12-03T00:05:18.052Z,1.1
2022-12-03T00:06:17.950Z,1.1
2022-12-03T00:07:17.827Z,1.1
2022-12-03T00:08:18.075Z,1.1
2022-12-03T00:09:17.759Z,1.1
2022-12-03T00:10:17.757Z,1.1
2022-12-03T00:11:17.761Z,1.1
2022-12-03T00:12:17.762Z,1.1
2022-12-03T00:13:17.763Z,1
2022-12-03T00:14:17.775Z,1.1
2022-12-03T00:15:17.767Z,1.1
2022-12-03T00:16:17.826Z,1.1
2022-12-03T00:17:17.763Z,1.1
2022-12-03T00:18:17.764Z,1.1
2022-12-03T00:19:17.775Z,1.1
2022-12-03T00:20:17.767Z,1.1
2022-12-03T00:21:17.764Z,1.1
2022-12-03T00:22:17.785Z,1.1
2022-12-03T00:23:17.771Z,1
2022-12-03T00:24:17.771Z,1.1
2022-12-03T00:25:17.758Z,1
2022-12-03T00:26:17.764Z,1
2022-12-03T00:27:17.893Z,1
2022-12-03T00:28:17.764Z,1
2022-12-03T00:29:17.770Z,1
2022-12-03T00:30:17.762Z,1.1
2022-12-03T00:31:17.822Z,1
2022-12-03T00:32:17.762Z,1.1
2022-12-03T00:33:17.765Z,1
2022-12-03T00:34:17.766Z,1
2022-12-03T00:35:17.763Z,1
2022-12-03T00:36:17.761Z,1.1
2022-12-03T00:37:18.022Z,1.1
2022-12-03T00:38:17.765Z,1
2022-12-03T00:39:17.763Z,1
2022-12-03T00:40:17.763Z,1
2022-12-03T00:41:17.764Z,1
2022-12-03T00:42:17.759Z,1
2022-12-03T00:43:17.768Z,1
2022-12-03T00:44:17.778Z,1
2022-12-03T00:45:17.769Z,1
2022-12-03T00:46:21.233Z,1
2022-12-03T00:47:17.773Z,1
2022-12-03T00:48:17.777Z,1
2022-12-03T00:49:17.778Z,1
2022-12-03T00:50:17.775Z,1
2022-12-03T00:51:17.765Z,1
2022-12-03T00:52:17.760Z,1
2022-12-03T00:53:17.766Z,1
2022-12-03T00:54:17.779Z,1
2022-12-03T00:55:17.782Z,1
2022-12-03T00:56:17.759Z,1
2022-12-03T00:57:17.774Z,0.9
2022-12-03T00:58:17.783Z,0.9
2022-12-03T00:59:17.764Z,0.9
2022-12-03T01:00:17.782Z,0.9
2022-12-03T01:01:17.813Z,0.9
2022-12-03T01:02:17.829Z,0.9
2022-12-03T01:03:17.777Z,0.9
2022-12-03T01:04:17.789Z,0.9
2022-12-03T01:05:17.823Z,0.9
2022-12-03T01:06:17.763Z,0.9
2022-12-03T01:07:17.762Z,0.9
2022-12-03T01:08:17.759Z,0.9
2022-12-03T01:09:17.763Z,0.9
2022-12-03T01:10:17.767Z,0.9
2022-12-03T01:11:17.759Z,0.8
2022-12-03T01:12:17.764Z,0.9
2022-12-03T01:13:17.758Z,0.9
2022-12-03T01:14:17.769Z,0.8
2022-12-03T01:15:17.764Z,0.8
2022-12-03T01:16:17.869Z,0.8
2022-12-03T01:17:17.769Z,0.8
2022-12-03T01:18:17.763Z,0.8
2022-12-03T01:19:17.766Z,0.8
2022-12-03T01:20:17.765Z,0.8
2022-12-03T01:21:17.762Z,0.8
2022-12-03T01:22:17.762Z,0.8
2022-12-03T01:23:17.762Z,0.8
2022-12-03T01:24:17.758Z,0.8
2022-12-03T01:25:17.762Z,0.8
2022-12-03T01:26:17.762Z,0.8
2022-12-03T01:27:17.766Z,0.8
2022-12-03T01:28:17.765Z,0.8
2022-12-03T01:29:17.765Z,0.8
2022-12-03T01:30:17.771Z,0.8
2022-12-03T01:31:17.869Z,0.8
2022-12-03T01:32:17.770Z,0.8
2022-12-03T01:33:17.839Z,0.8
2022-12-03T01:34:17.774Z,0.8
2022-12-03T01:35:17.765Z,0.8
2022-12-03T01:36:17.759Z,0.8
2022-12-03T01:37:17.764Z,0.8
2022-12-03T01:38:17.761Z,0.8
2022-12-03T01:39:17.760Z,0.8
2022-12-03T01:40:17.768Z,0.8
2022-12-03T01:41:17.764Z,0.8
2022-12-03T01:42:17.763Z,0.8
2022-12-03T01:43:17.763Z,0.8
2022-12-03T01:44:17.760Z,0.8
2022-12-03T01:45:17.761Z,0.8
2022-12-03T01:46:17.822Z,0.8
2022-12-03T01:47:17.825Z,0.8
2022-12-03T01:48:17.764Z,0.8
2022-12-03T01:49:17.763Z,0.8
2022-12-03T01:50:17.764Z,0.8
2022-12-03T01:51:17.761Z,0.8
2022-12-03T01:52:17.759Z,0.8
2022-12-03T01:53:17.878Z,0.8
2022-12-03T01:54:18.133Z,0.8
2022-12-03T01:55:18.341Z,0.8
2022-12-03T01:56:18.752Z,0.8
2022-12-03T01:57:18.245Z,0.8
2022-12-03T01:58:18.029Z,0.8
2022-12-03T01:59:17.781Z,0.7
2022-12-03T02:00:17.766Z,0.7
2022-12-03T02:01:17.779Z,0.7
2022-12-03T02:02:17.876Z,0.7
2022-12-03T02:03:17.767Z,0.7
2022-12-03T02:04:17.824Z,0.7
2022-12-03T02:05:17.763Z,0.7
2022-12-03T02:06:17.770Z,0.7
2022-12-03T02:07:17.758Z,0.7
2022-12-03T02:08:17.779Z,0.7
2022-12-03T02:09:17.783Z,0.7
2022-12-03T02:10:17.761Z,0.7
2022-12-03T02:11:17.761Z,0.7
2022-12-03T02:12:17.765Z,0.7
2022-12-03T02:13:17.773Z,0.7
2022-12-03T02:14:17.773Z,0.7
2022-12-03T02:15:17.764Z,0.7
2022-12-03T02:16:17.888Z,0.7
2022-12-03T02:17:17.763Z,0.7
2022-12-03T02:18:17.766Z,0.7
2022-12-03T02:19:17.776Z,0.7
2022-12-03T02:20:17.761Z,0.7
2022-12-03T02:21:17.766Z,0.7
2022-12-03T02:22:17.767Z,0.7
2022-12-03T02:23:17.769Z,0.7
2022-12-03T02:24:17.764Z,0.7
2022-12-03T02:25:17.764Z,0.7
2022-12-03T02:26:17.758Z,0.7
2022-12-03T02:27:17.764Z,0.7
2022-12-03T02:28:17.759Z,0.7
2022-12-03T02:29:17.767Z,0.7
2022-12-03T02:30:17.768Z,0.7
2022-12-03T02:31:17.794Z,0.7
2022-12-03T02:32:17.759Z,0.7
2022-12-03T02:33:17.763Z,0.7
2022-12-03T02:34:17.761Z,0.7
2022-12-03T02:35:17.764Z,0.7
2022-12-03T02:36:17.758Z,0.7
2022-12-03T02:37:17.758Z,0.7
2022-12-03T02:38:17.765Z,0.7
2022-12-03T02:39:17.759Z,0.6
2022-12-03T02:40:17.760Z,0.6
2022-12-03T02:41:17.765Z,0.6
2022-12-03T02:42:17.765Z,0.7
2022-12-03T02:43:17.762Z,0.7
2022-12-03T02:44:17.866Z,0.7
2022-12-03T02:45:17.764Z,0.7
2022-12-03T02:46:17.826Z,0.6
2022-12-03T02:47:17.762Z,0.7
2022-12-03T02:48:17.764Z,0.6
2022-12-03T02:49:17.782Z,0.6
2022-12-03T02:50:17.767Z,0.6
2022-12-03T02:51:17.759Z,0.6
2022-12-03T02:52:17.765Z,0.6
2022-12-03T02:53:17.760Z,0.6
2022-12-03T02:54:17.783Z,0.6
2022-12-03T02:55:17.760Z,0.6
2022-12-03T02:56:17.766Z,0.6
2022-12-03T02:57:17.766Z,0.6
2022-12-03T02:58:17.761Z,0.6
2022-12-03T02:59:17.972Z,0.6
2022-12-03T03:00:17.759Z,0.6
2022-12-03T03:01:17.821Z,0.6
2022-12-03T03:02:17.787Z,0.6
2022-12-03T03:03:17.766Z,0.6
2022-12-03T03:04:17.775Z,0.6
2022-12-03T03:05:17.761Z,0.6
2022-12-03T03:06:17.759Z,0.6
2022-12-03T03:07:17.764Z,0.6
2022-12-03T03:08:17.843Z,0.6
2022-12-03T03:09:17.761Z,0.6
2022-12-03T03:10:17.767Z,0.6
2022-12-03T03:11:17.763Z,0.6
2022-12-03T03:12:17.804Z,0.6
2022-12-03T03:13:18.011Z,0.6
2022-12-03T03:14:17.760Z,0.6
2022-12-03T03:15:17.766Z,0.6
2022-12-03T03:16:17.797Z,0.6
2022-12-03T03:17:17.765Z,0.6
2022-12-03T03:18:17.762Z,0.6
2022-12-03T03:19:17.763Z,0.6
2022-12-03T03:20:17.764Z,0.6
2022-12-03T03:21:17.758Z,0.6
2022-12-03T03:22:17.766Z,0.6
2022-12-03T03:23:17.819Z,0.6
2022-12-03T03:24:17.783Z,0.6
2022-12-03T03:25:17.911Z,0.6
2022-12-03T03:26:18.205Z,0.6
2022-12-03T03:27:17.764Z,0.6
2022-12-03T03:28:17.766Z,0.6
2022-12-03T03:29:17.999Z,0.6
2022-12-03T03:30:17.758Z,0.6
2022-12-03T03:31:18.120Z,0.6
2022-12-03T03:32:17.766Z,0.6
2022-12-03T03:33:17.763Z,0.6
2022-12-03T03:34:17.944Z,0.6
2022-12-03T03:35:17.765Z,0.6
2022-12-03T03:36:17.987Z,0.6
2022-12-03T03:37:17.763Z,0.6
2022-12-03T03:38:18.002Z,0.6
2022-12-03T03:39:17.780Z,0.6
2022-12-03T03:40:18.113Z,0.6
2022-12-03T03:41:17.837Z,0.6
2022-12-03T03:42:18.038Z,0.6
2022-12-03T03:43:18.017Z,0.6
2022-12-03T03:44:17.763Z,0.6
2022-12-03T03:45:17.787Z,0.6
2022-12-03T03:46:17.812Z,0.6
2022-12-03T03:47:17.759Z,0.6
2022-12-03T03:48:17.758Z,0.6
2022-12-03T03:49:17.759Z,0.6
2022-12-03T03:50:17.764Z,0.5
2022-12-03T03:51:17.759Z,0.6
2022-12-03T03:52:17.770Z,0.6
2022-12-03T03:53:17.762Z,0.6
2022-12-03T03:54:17.764Z,0.6
2022-12-03T03:55:17.759Z,0.5
2022-12-03T03:56:17.758Z,0.5
2022-12-03T03:57:17.759Z,0.5
2022-12-03T03:58:17.772Z,0.5
2022-12-03T03:59:17.759Z,0.5
2022-12-03T04:00:17.767Z,0.5
2022-12-03T04:01:17.793Z,0.5
2022-12-03T04:02:17.763Z,0.5
2022-12-03T04:03:17.758Z,0.5
2022-12-03T04:04:17.796Z,0.5
2022-12-03T04:05:17.758Z,0.5
2022-12-03T04:06:17.763Z,0.5
2022-12-03T04:07:17.765Z,0.5
2022-12-03T04:08:17.958Z,0.5
2022-12-03T04:09:17.778Z,0.5
2022-12-03T04:10:17.762Z,0.5
2022-12-03T04:11:17.763Z,0.5
2022-12-03T04:12:17.762Z,0.5
2022-12-03T04:13:18.036Z,0.5
2022-12-03T04:14:17.771Z,0.5
2022-12-03T04:15:17.758Z,0.5
2022-12-03T04:16:17.800Z,0.5
2022-12-03T04:17:17.770Z,0.5
2022-12-03T04:18:17.763Z,0.5
2022-12-03T04:19:17.774Z,0.5
2022-12-03T04:20:17.762Z,0.5
2022-12-03T04:21:17.765Z,0.5
2022-12-03T04:22:17.760Z,0.5
2022-12-03T04:23:17.767Z,0.5
2022-12-03T04:24:17.758Z,0.5
2022-12-03T04:25:17.763Z,0.5
2022-12-03T04:26:17.762Z,0.5
2022-12-03T04:27:17.759Z,0.5
2022-12-03T04:28:17.759Z,0.5
2022-12-03T04:29:17.759Z,0.5
2022-12-03T04:30:17.764Z,0.5
2022-12-03T04:31:17.816Z,0.5
2022-12-03T04:32:17.762Z,0.5
2022-12-03T04:33:17.769Z,0.5
2022-12-03T04:34:17.762Z,0.5
2022-12-03T04:35:18.005Z,0.5
2022-12-03T04:36:17.763Z,0.5
2022-12-03T04:37:17.758Z,0.5
2022-12-03T04:38:17.761Z,0.5
2022-12-03T04:39:17.762Z,0.5
2022-12-03T04:40:17.763Z,0.5
2022-12-03T04:41:17.758Z,0.5
2022-12-03T04:42:17.766Z,0.5
2022-12-03T04:43:17.763Z,0.5
2022-12-03T04:44:17.766Z,0.5
2022-12-03T04:45:17.758Z,0.5
2022-12-03T04:46:17.803Z,0.4
2022-12-03T04:47:17.761Z,0.4
2022-12-03T04:48:17.760Z,0.4
2022-12-03T04:49:17.768Z,0.4
2022-12-03T04:50:17.757Z,0.4
2022-12-03T04:51:17.767Z,0.4
2022-12-03T04:52:17.772Z,0.4
2022-12-03T04:53:17.760Z,0.4
2022-12-03T04:54:17.761Z,0.4
2022-12-03T04:55:17.763Z,0.4
2022-12-03T04:56:17.757Z,0.4
2022-12-03T04:57:17.762Z,0.4
2022-12-03T04:58:17.762Z,0.4
2022-12-03T04:59:17.758Z,0.4
2022-12-03T05:00:17.765Z,0.4
2022-12-03T05:01:17.864Z,0.4
2022-12-03T05:02:17.806Z,0.4
2022-12-03T05:03:17.939Z,0.4
2022-12-03T05:04:17.769Z,0.4
2022-12-03T05:05:17.758Z,0.4
2022-12-03T05:06:17.762Z,0.4
2022-12-03T05:07:17.762Z,0.4
2022-12-03T05:08:17.847Z,0.4
2022-12-03T05:09:17.762Z,0.3
2022-12-03T05:10:17.763Z,0.3
2022-12-03T05:11:17.761Z,0.3
2022-12-03T05:12:17.757Z,0.3
2022-12-03T05:13:17.760Z,0.3
2022-12-03T05:14:17.764Z,0.3
2022-12-03T05:15:17.759Z,0.3
2022-12-03T05:16:17.826Z,0.3
2022-12-03T05:17:17.762Z,0.3
2022-12-03T05:18:17.763Z,0.3
2022-12-03T05:19:17.760Z,0.3
2022-12-03T05:20:17.761Z,0.2
2022-12-03T05:21:17.766Z,0.2
2022-12-03T05:22:17.758Z,0.2
2022-12-03T05:23:17.757Z,0.2
2022-12-03T05:24:17.759Z,0.2
2022-12-03T05:25:17.757Z,0.2
2022-12-03T05:26:17.766Z,0.2
2022-12-03T05:27:23.839Z,0.2
2022-12-03T05:28:17.759Z,0.2
2022-12-03T05:29:17.763Z,0.1
2022-12-03T05:30:17.986Z,0.2
2022-12-03T05:31:18.458Z,0.1
2022-12-03T05:32:18.201Z,0.1
2022-12-03T05:33:17.888Z,0.1
2022-12-03T05:34:17.774Z,0.1
2022-12-03T05:35:17.759Z,0.1
2022-12-03T05:36:17.761Z,0.1
2022-12-03T05:37:17.773Z,0.1
2022-12-03T05:38:17.766Z,0.1
2022-12-03T05:39:17.763Z,0.1
2022-12-03T05:40:17.762Z,0.1
2022-12-03T05:41:17.759Z,0.1
2022-12-03T05:42:17.763Z,0.1
2022-12-03T05:43:17.779Z,0.1
2022-12-03T05:44:20.408Z,0.1
2022-12-03T05:45:17.766Z,0.1
2022-12-03T05:46:17.821Z,0.1
2022-12-03T05:47:17.759Z,0.1
2022-12-03T05:48:17.773Z,0.1
2022-12-03T05:49:17.758Z,0.1
2022-12-03T05:50:17.758Z,0.1
2022-12-03T05:51:17.763Z,0.1
2022-12-03T05:52:17.763Z,0.1
2022-12-03T05:53:17.780Z,0.1
2022-12-03T05:54:17.770Z,0.1
2022-12-03T05:55:17.766Z,0.1
2022-12-03T05:56:17.761Z,0.1
2022-12-03T05:57:17.764Z,0.1
2022-12-03T05:58:17.835Z,0.1
2022-12-03T05:59:17.761Z,0.1
2022-12-03T06:00:17.774Z,0.1
2022-12-03T06:01:17.758Z,0.1
2022-12-03T06:02:17.866Z,0.1
2022-12-03T06:03:17.847Z,0.1
2022-12-03T06:04:17.758Z,0.1
2022-12-03T06:05:17.774Z,0.1
2022-12-03T06:06:17.758Z,0.1
2022-12-03T06:07:17.762Z,0.1
2022-12-03T06:08:17.804Z,0.1
2022-12-03T06:09:17.757Z,0.1
2022-12-03T06:10:17.770Z,0.1
2022-12-03T06:11:17.762Z,0.1
2022-12-03T06:12:17.761Z,0.1
2022-12-03T06:13:17.832Z,0.1
2022-12-03T06:14:17.758Z,0.1
2022-12-03T06:15:17.778Z,0.1
2022-12-03T06:16:17.880Z,0.1
2022-12-03T06:17:17.756Z,0.1
2022-12-03T06:18:17.757Z,0.1
2022-12-03T06:19:17.762Z,0.1
2022-12-03T06:20:17.788Z,0.1
2022-12-03T06:21:17.755Z,0.1
2022-12-03T06:22:17.756Z,0.1
2022-12-03T06:23:17.756Z,0.1
2022-12-03T06:24:17.764Z,0
2022-12-03T06:25:17.781Z,0.1
2022-12-03T06:26:17.776Z,0
2022-12-03T06:27:17.757Z,0.1
2022-12-03T06:28:17.763Z,0
2022-12-03T06:29:17.763Z,0
2022-12-03T06:30:17.793Z,0
2022-12-03T06:31:17.853Z,0
2022-12-03T06:32:17.766Z,0
2022-12-03T06:33:17.763Z,0
2022-12-03T06:34:17.759Z,0
2022-12-03T06:35:17.769Z,0
2022-12-03T06:36:22.700Z,0
2022-12-03T06:37:17.763Z,0
2022-12-03T06:38:17.766Z,0
2022-12-03T06:39:17.765Z,0
2022-12-03T06:40:17.762Z,0
2022-12-03T06:41:17.769Z,0
2022-12-03T06:42:17.768Z,0
2022-12-03T06:43:17.772Z,0
2022-12-03T06:44:17.792Z,0
2022-12-03T06:45:17.761Z,0
2022-12-03T06:46:17.798Z,0
2022-12-03T06:47:17.766Z,0
2022-12-03T06:48:17.766Z,0
2022-12-03T06:49:18.056Z,0
2022-12-03T06:50:17.766Z,0
2022-12-03T06:51:17.765Z,0
2022-12-03T06:52:17.763Z,0
2022-12-03T06:53:17.766Z,-0.1
2022-12-03T06:54:17.784Z,-0.1
2022-12-03T06:55:17.762Z,-0.1
2022-12-03T06:56:21.476Z,-0.1
2022-12-03T06:57:17.766Z,-0.1
2022-12-03T06:58:17.760Z,-0.1
2022-12-03T06:59:17.777Z,-0.1
2022-12-03T07:00:17.977Z,-0.1
2022-12-03T07:01:17.784Z,-0.1
2022-12-03T07:02:18.007Z,-0.1
2022-12-03T07:03:17.875Z,-0.1
2022-12-03T07:04:18.056Z,-0.1
2022-12-03T07:05:17.903Z,-0.1
2022-12-03T07:06:17.762Z,-0.1
2022-12-03T07:07:17.759Z,-0.1
2022-12-03T07:08:17.970Z,-0.1
2022-12-03T07:09:17.776Z,-0.1
2022-12-03T07:10:17.993Z,-0.1
2022-12-03T07:11:17.814Z,-0.1
2022-12-03T07:12:18.024Z,-0.1
2022-12-03T07:13:17.896Z,-0.1
2022-12-03T07:14:17.762Z,-0.1
2022-12-03T07:15:17.913Z,-0.1
2022-12-03T07:16:17.794Z,-0.1
2022-12-03T07:17:17.762Z,-0.1
2022-12-03T07:18:17.856Z,-0.1
2022-12-03T07:19:18.058Z,-0.1
2022-12-03T07:20:17.766Z,-0.1
2022-12-03T07:21:17.761Z,-0.1
2022-12-03T07:22:17.758Z,-0.1
2022-12-03T07:23:17.770Z,0
2022-12-03T07:24:17.761Z,0
2022-12-03T07:25:22.763Z,0
2022-12-03T07:26:17.763Z,0
2022-12-03T07:27:17.759Z,0
2022-12-03T07:28:17.765Z,0
2022-12-03T07:29:17.769Z,0
2022-12-03T07:30:17.789Z,0
2022-12-03T07:31:17.814Z,0
2022-12-03T07:32:17.762Z,0
2022-12-03T07:33:17.763Z,0
2022-12-03T07:34:17.768Z,0
2022-12-03T07:35:17.760Z,0.1
2022-12-03T07:36:17.759Z,0.1
2022-12-03T07:37:21.548Z,0.1
2022-12-03T07:38:17.760Z,0.1
2022-12-03T07:39:17.758Z,0.1
2022-12-03T07:40:17.763Z,0.1
2022-12-03T07:41:17.759Z,0.1
2022-12-03T07:42:17.763Z,0.1
2022-12-03T07:43:17.766Z,0.1
2022-12-03T07:44:17.768Z,0.1
2022-12-03T07:45:17.764Z,0.1
2022-12-03T07:46:18.076Z,0.1
2022-12-03T07:47:17.759Z,0.1
2022-12-03T07:48:17.759Z,0.1
2022-12-03T07:49:17.758Z,0.1
2022-12-03T07:50:17.763Z,0.1
2022-12-03T07:51:17.763Z,0.1
2022-12-03T07:52:17.765Z,0.1
2022-12-03T07:53:17.766Z,0.2
2022-12-03T07:54:17.772Z,0.2
2022-12-03T07:55:17.757Z,0.2
2022-12-03T07:56:17.765Z,0.2
2022-12-03T07:57:17.761Z,0.2
2022-12-03T07:58:17.767Z,0.2
2022-12-03T07:59:17.762Z,0.2
2022-12-03T08:00:17.758Z,0.3
2022-12-03T08:01:17.820Z,0.3
2022-12-03T08:02:21.091Z,0.3
2022-12-03T08:03:17.763Z,0.3
2022-12-03T08:04:17.759Z,0.3
2022-12-03T08:05:17.760Z,0.3
2022-12-03T08:06:17.758Z,0.4
2022-12-03T08:07:17.759Z,0.4
2022-12-03T08:08:17.879Z,0.4
2022-12-03T08:09:17.762Z,0.4
2022-12-03T08:10:17.759Z,0.4
2022-12-03T08:11:17.776Z,0.5
2022-12-03T08:12:17.757Z,0.5
2022-12-03T08:13:17.762Z,0.5
2022-12-03T08:14:17.761Z,0.5
2022-12-03T08:15:17.764Z,0.5
2022-12-03T08:16:17.781Z,0.5
2022-12-03T08:17:17.767Z,0.5
2022-12-03T08:18:17.760Z,0.5
2022-12-03T08:19:17.780Z,0.5
2022-12-03T08:20:17.760Z,0.5
2022-12-03T08:21:17.757Z,0.5
2022-12-03T08:22:17.767Z,0.5
2022-12-03T08:23:17.773Z,0.5
2022-12-03T08:24:17.767Z,0.5
2022-12-03T08:25:17.767Z,0.5
2022-12-03T08:26:17.771Z,0.5
2022-12-03T08:27:17.760Z,0.5
2022-12-03T08:28:17.764Z,0.5
2022-12-03T08:29:17.759Z,0.5
2022-12-03T08:30:17.776Z,0.5
2022-12-03T08:31:17.800Z,0.5
2022-12-03T08:32:17.823Z,0.6
2022-12-03T08:33:17.764Z,0.6
2022-12-03T08:34:17.771Z,0.6
2022-12-03T08:35:17.773Z,0.6
2022-12-03T08:36:17.758Z,0.6
2022-12-03T08:37:17.773Z,0.6
2022-12-03T08:38:17.766Z,0.5
2022-12-03T08:39:17.770Z,0.5
2022-12-03T08:40:17.842Z,0.5
2022-12-03T08:41:17.763Z,0.5
2022-12-03T08:42:17.763Z,0.5
2022-12-03T08:43:17.765Z,0.5
2022-12-03T08:44:17.766Z,0.5
2022-12-03T08:45:17.763Z,0.6
2022-12-03T08:46:17.811Z,0.6
2022-12-03T08:47:17.760Z,0.6
2022-12-03T08:48:17.759Z,0.6
2022-12-03T08:49:17.763Z,0.6
2022-12-03T08:50:17.766Z,0.6
2022-12-03T08:51:17.760Z,0.6
2022-12-03T08:52:17.765Z,0.6
2022-12-03T08:53:17.766Z,0.6
2022-12-03T08:54:17.762Z,0.6
2022-12-03T08:55:17.760Z,0.6
2022-12-03T08:56:17.762Z,0.7
2022-12-03T08:57:17.760Z,0.7
2022-12-03T08:58:17.773Z,0.7
2022-12-03T08:59:17.766Z,0.7
2022-12-03T09:00:17.759Z,0.7
2022-12-03T09:01:17.800Z,0.7
2022-12-03T09:02:17.766Z,0.7
2022-12-03T09:03:17.764Z,0.7
2022-12-03T09:04:18.164Z,0.8
2022-12-03T09:05:18.305Z,0.8
2022-12-03T09:06:17.760Z,0.8
2022-12-03T09:07:17.762Z,0.8
2022-12-03T09:08:18.165Z,0.8
2022-12-03T09:09:17.759Z,0.8
2022-12-03T09:10:17.781Z,0.8
2022-12-03T09:11:17.759Z,0.8
2022-12-03T09:12:17.764Z,0.8
2022-12-03T09:13:17.764Z,0.8
2022-12-03T09:14:18.816Z,0.8
2022-12-03T09:15:17.783Z,0.8
2022-12-03T09:16:17.837Z,0.8
2022-12-03T09:17:17.759Z,0.8
2022-12-03T09:18:17.760Z,0.8
2022-12-03T09:19:17.770Z,0.8
2022-12-03T09:20:17.776Z,0.8
2022-12-03T09:21:17.959Z,0.8
2022-12-03T09:22:17.765Z,0.8
2022-12-03T09:23:17.764Z,0.8
2022-12-03T09:24:17.763Z,0.8
2022-12-03T09:25:17.765Z,0.8
2022-12-03T09:26:17.770Z,0.8
2022-12-03T09:27:17.760Z,0.8
2022-12-03T09:28:17.758Z,0.8
2022-12-03T09:29:17.778Z,0.8
2022-12-03T09:30:17.772Z,0.8
2022-12-03T09:31:17.803Z,0.8
2022-12-03T09:32:18.651Z,0.8
2022-12-03T09:33:17.766Z,0.8
2022-12-03T09:34:17.781Z,0.8
2022-12-03T09:35:17.763Z,0.8
2022-12-03T09:36:17.765Z,0.8
2022-12-03T09:37:17.759Z,0.8
2022-12-03T09:38:17.772Z,0.8
2022-12-03T09:39:17.770Z,0.8
2022-12-03T09:40:17.759Z,0.8
2022-12-03T09:41:17.764Z,0.8
2022-12-03T09:42:17.766Z,0.8
2022-12-03T09:43:17.764Z,0.8
2022-12-03T09:44:18.397Z,0.8
2022-12-03T09:45:17.807Z,0.8
2022-12-03T09:46:17.935Z,0.8
2022-12-03T09:47:17.768Z,0.8
2022-12-03T09:48:17.828Z,0.8
2022-12-03T09:49:17.811Z,0.8
2022-12-03T09:50:17.759Z,0.8
2022-12-03T09:51:17.761Z,0.8
2022-12-03T09:52:17.759Z,0.8
2022-12-03T09:53:17.759Z,0.8
2022-12-03T09:54:17.781Z,0.8
2022-12-03T09:55:17.764Z,0.8
2022-12-03T09:56:17.760Z,0.8
2022-12-03T09:57:17.765Z,0.9
2022-12-03T09:58:17.765Z,0.9
2022-12-03T09:59:17.770Z,0.9
2022-12-03T10:00:17.768Z,0.9
2022-12-03T10:01:17.859Z,0.9
2022-12-03T10:02:17.768Z,0.9
2022-12-03T10:03:17.957Z,0.9
2022-12-03T10:04:17.861Z,0.9
2022-12-03T10:05:17.763Z,0.9
2022-12-03T10:06:17.760Z,0.9
2022-12-03T10:07:17.757Z,0.9
2022-12-03T10:08:17.831Z,1
2022-12-03T10:09:17.777Z,1
2022-12-03T10:10:17.760Z,1
2022-12-03T10:11:17.759Z,1
2022-12-03T10:12:17.760Z,1
2022-12-03T10:13:21.015Z,1.1
2022-12-03T10:14:17.790Z,1.1
2022-12-03T10:15:17.760Z,1.1
2022-12-03T10:16:17.785Z,1.1
2022-12-03T10:17:17.823Z,1.1
2022-12-03T10:18:17.759Z,1.1
2022-12-03T10:19:17.772Z,1.1
2022-12-03T10:20:17.765Z,1.1
2022-12-03T10:21:17.762Z,1.1
2022-12-03T10:22:17.759Z,1.1
2022-12-03T10:23:17.759Z,1.1
2022-12-03T10:24:18.014Z,1.1
2022-12-03T10:25:17.764Z,1.1
2022-12-03T10:26:17.763Z,1.1
2022-12-03T10:27:17.765Z,1.1
2022-12-03T10:28:17.767Z,1.1
2022-12-03T10:29:17.788Z,1.1
2022-12-03T10:30:17.765Z,1.1
2022-12-03T10:31:17.784Z,1.2
2022-12-03T10:32:17.759Z,1.2
2022-12-03T10:33:19.212Z,1.2
2022-12-03T10:34:17.806Z,1.2
2022-12-03T10:35:18.046Z,1.2
2022-12-03T10:36:17.867Z,1.3
2022-12-03T10:37:17.757Z,1.3
2022-12-03T10:38:17.769Z,1.3
2022-12-03T10:39:17.774Z,1.3
2022-12-03T10:40:17.776Z,1.3
2022-12-03T10:41:17.760Z,1.3
2022-12-03T10:42:17.759Z,1.3
2022-12-03T10:43:17.904Z,1.3
2022-12-03T10:44:17.771Z,1.3
2022-12-03T10:45:17.873Z,1.3
2022-12-03T10:46:17.830Z,1.3
2022-12-03T10:47:18.044Z,1.3
2022-12-03T10:48:17.757Z,1.3
2022-12-03T10:49:17.812Z,1.3
2022-12-03T10:50:18.102Z,1.2
2022-12-03T10:51:17.823Z,1.2
2022-12-03T10:52:22.637Z,1.2
2022-12-03T10:53:17.798Z,1.2
2022-12-03T10:54:18.040Z,1.2
2022-12-03T10:55:17.770Z,1.2
2022-12-03T10:56:17.767Z,1.2
2022-12-03T10:57:17.766Z,1.2
2022-12-03T10:58:17.940Z,1.2
2022-12-03T10:59:17.765Z,1.2
2022-12-03T11:00:17.842Z,1.2
2022-12-03T11:01:17.811Z,1.2
2022-12-03T11:02:17.764Z,1.2
2022-12-03T11:03:17.813Z,1.2
2022-12-03T11:04:17.782Z,1.2
2022-12-03T11:05:17.765Z,1.2
2022-12-03T11:06:17.774Z,1.2
2022-12-03T11:07:17.765Z,1.2
2022-12-03T11:08:17.854Z,1.2
2022-12-03T11:09:17.778Z,1.2
2022-12-03T11:10:17.764Z,1.2
2022-12-03T11:11:17.794Z,1.2
2022-12-03T11:12:17.761Z,1.2
2022-12-03T11:13:17.767Z,1.2
2022-12-03T11:14:22.739Z,1.2
2022-12-03T11:15:17.760Z,1.2
2022-12-03T11:16:17.827Z,1.2
2022-12-03T11:17:17.765Z,1.2
2022-12-03T11:18:17.767Z,1.1
2022-12-03T11:19:17.786Z,1.2
2022-12-03T11:20:22.304Z,1.1
2022-12-03T11:21:17.765Z,1.1
2022-12-03T11:22:18.016Z,1.1
2022-12-03T11:23:17.763Z,1.1
2022-12-03T11:24:17.782Z,1.1
2022-12-03T11:25:17.864Z,1.1
2022-12-03T11:26:19.427Z,1.1
2022-12-03T11:27:17.759Z,1.1
2022-12-03T11:28:17.764Z,1.1
2022-12-03T11:29:17.766Z,1.1
2022-12-03T11:30:17.774Z,1.1
2022-12-03T11:31:17.800Z,1.1
2022-12-03T11:32:17.766Z,1.1
2022-12-03T11:33:17.770Z,1.1
2022-12-03T11:34:17.759Z,1.1
2022-12-03T11:35:17.772Z,1.1
2022-12-03T11:36:17.766Z,1.1
2022-12-03T11:37:17.762Z,1.1
2022-12-03T11:38:17.767Z,1.1
2022-12-03T11:39:17.761Z,1.1
2022-12-03T11:40:17.778Z,1.1
2022-12-03T11:41:17.767Z,1.1
2022-12-03T11:42:17.766Z,1.1
2022-12-03T11:43:17.765Z,1.1
2022-12-03T11:44:17.759Z,1.2
2022-12-03T11:45:17.782Z,1.2
2022-12-03T11:46:17.791Z,1.2
2022-12-03T11:47:17.767Z,1.2
2022-12-03T11:48:17.771Z,1.2
2022-12-03T11:49:17.761Z,1.2
2022-12-03T11:50:17.774Z,1.2
2022-12-03T11:51:17.767Z,1.2
2022-12-03T11:52:17.911Z,1.2
2022-12-03T11:53:17.765Z,1.1
2022-12-03T11:54:17.778Z,1.1
2022-12-03T11:55:17.764Z,1.2
2022-12-03T11:56:17.773Z,1.2
2022-12-03T11:57:17.759Z,1.2
2022-12-03T11:58:17.760Z,1.2
2022-12-03T11:59:17.786Z,1.2
2022-12-03T12:00:17.770Z,1.2
2022-12-03T12:01:17.765Z,1.2
2022-12-03T12:02:17.768Z,1.2
2022-12-03T12:03:17.921Z,1.2
2022-12-03T12:04:17.843Z,1.2
2022-12-03T12:05:17.760Z,1.2
2022-12-03T12:06:17.770Z,1.2
2022-12-03T12:07:17.970Z,1.2
2022-12-03T12:08:17.863Z,1.2
2022-12-03T12:09:17.759Z,1.2
2022-12-03T12:10:17.758Z,1.2
2022-12-03T12:11:17.758Z,1.2
2022-12-03T12:12:17.756Z,1.2
2022-12-03T12:13:17.758Z,1.2
2022-12-03T12:14:17.759Z,1.2
2022-12-03T12:15:17.763Z,1.2
2022-12-03T12:16:17.811Z,1.2
2022-12-03T12:17:17.759Z,1.2
2022-12-03T12:18:17.765Z,1.2
2022-12-03T12:19:17.781Z,1.2
2022-12-03T12:20:17.841Z,1.2
2022-12-03T12:21:17.757Z,1.2
2022-12-03T12:22:17.763Z,1.2
2022-12-03T12:23:17.768Z,1.2
2022-12-03T12:24:17.777Z,1.2
2022-12-03T12:25:17.765Z,1.3
2022-12-03T12:26:17.858Z,1.3
2022-12-03T12:27:17.769Z,1.3
2022-12-03T12:28:17.761Z,1.3
2022-12-03T12:29:17.845Z,1.3
2022-12-03T12:30:17.792Z,1.3
2022-12-03T12:31:17.855Z,1.3
2022-12-03T12:32:17.765Z,1.3
2022-12-03T12:33:17.765Z,1.3
2022-12-03T12:34:17.779Z,1.3
2022-12-03T12:35:17.758Z,1.3
2022-12-03T12:36:17.757Z,1.4
2022-12-03T12:37:18.127Z,1.4
2022-12-03T12:38:18.139Z,1.4
2022-12-03T12:39:17.946Z,1.4
2022-12-03T12:40:18.177Z,1.4
2022-12-03T12:41:18.236Z,1.4
2022-12-03T12:42:17.765Z,1.4
2022-12-03T12:43:22.028Z,1.4
2022-12-03T12:44:17.998Z,1.4
2022-12-03T12:45:17.782Z,1.4
2022-12-03T12:46:46.454Z,1.4
2022-12-03T12:47:17.788Z,1.3
2022-12-03T12:48:17.813Z,1.3
2022-12-03T12:49:17.779Z,1.3
2022-12-03T12:50:17.766Z,1.3
2022-12-03T12:51:17.759Z,1.3
2022-12-03T12:52:17.765Z,1.3
2022-12-03T12:53:17.764Z,1.3
2022-12-03T12:54:17.773Z,1.3
2022-12-03T12:55:17.770Z,1.3
2022-12-03T12:56:17.768Z,1.3
2022-12-03T12:57:17.768Z,1.3
2022-12-03T12:58:17.764Z,1.3
2022-12-03T12:59:17.779Z,1.3
2022-12-03T13:00:17.804Z,1.3
2022-12-03T13:01:18.080Z,1.3
2022-12-03T13:02:18.446Z,1.3
2022-12-03T13:03:17.763Z,1.3
2022-12-03T13:04:17.780Z,1.3
2022-12-03T13:05:17.764Z,1.3
2022-12-03T13:06:17.762Z,1.3
2022-12-03T13:07:17.760Z,1.2
2022-12-03T13:08:17.850Z,1.2
2022-12-03T13:09:17.772Z,1.2
2022-12-03T13:10:17.765Z,1.2
2022-12-03T13:11:17.761Z,1.2
2022-12-03T13:12:17.768Z,1.2
2022-12-03T13:13:17.777Z,1.2
2022-12-03T13:14:17.763Z,1.2
2022-12-03T13:15:17.762Z,1.2
2022-12-03T13:16:17.859Z,1.2
2022-12-03T13:17:17.780Z,1.2
2022-12-03T13:18:17.769Z,1.2
2022-12-03T13:19:17.763Z,1.2
2022-12-03T13:20:17.766Z,1.2
2022-12-03T13:21:17.763Z,1.2
2022-12-03T13:22:17.776Z,1.2
2022-12-03T13:23:17.760Z,1.2
2022-12-03T13:24:17.764Z,1.2
2022-12-03T13:25:32.728Z,1.2
2022-12-03T13:26:29.381Z,1.2
2022-12-03T13:27:17.781Z,1.2
2022-12-03T13:28:17.762Z,1.2
2022-12-03T13:29:17.767Z,1.2
2022-12-03T13:30:17.848Z,1.2
2022-12-03T13:31:17.800Z,1.1
2022-12-03T13:32:17.781Z,1.1
2022-12-03T13:33:17.758Z,1.1
2022-12-03T13:34:17.760Z,1.1
2022-12-03T13:35:17.765Z,1.1
2022-12-03T13:36:17.764Z,1.1
2022-12-03T13:37:17.778Z,1.1
2022-12-03T13:38:17.763Z,1.1
2022-12-03T13:39:17.761Z,1.1
2022-12-03T13:40:17.764Z,1.1
2022-12-03T13:41:17.765Z,1.1
2022-12-03T13:42:17.784Z,1.1
2022-12-03T13:43:17.767Z,1.1
2022-12-03T13:44:17.763Z,1.1
2022-12-03T13:45:17.835Z,1.2
2022-12-03T13:46:17.832Z,1.2
2022-12-03T13:47:17.879Z,1.2
2022-12-03T13:48:17.764Z,1.2
2022-12-03T13:49:17.763Z,1.2
2022-12-03T13:50:17.764Z,1.2